Time;durP1;ratioP1;P1;durP2;ratioP2;P2;SDS_P1;SDS_P2;PMS_P1;PMS_P2;Temp;Humidity;BMP_temperature;BMP_pressure;BME280_temperature;BME280_humidity;BME280_pressure;Samples;Min_cycle;Max_cycle;Signal;HPM_P1;HPM_P2
2023/04/17 00:01:37;;;;;;;26.00;17.10;;;10.50;99.90;;;;;;4953029;28;20632;-64
2023/04/17 00:04:03;;;;;;;29.67;17.57;;;10.50;99.90;;;;;;4962319;28;20272;-64
2023/04/17 00:06:32;;;;;;;35.50;18.43;;;10.40;99.90;;;;;;4976256;28;20201;-65
2023/04/17 00:08:58;;;;;;;28.83;18.17;;;10.50;99.90;;;;;;4968465;28;20182;-64
2023/04/17 00:11:24;;;;;;;22.47;17.20;;;10.50;99.90;;;;;;4956859;28;20178;-64
2023/04/17 00:13:50;;;;;;;37.10;19.27;;;10.50;99.90;;;;;;4958206;28;20545;-64
2023/04/17 00:16:16;;;;;;;25.20;18.50;;;10.50;99.90;;;;;;4957121;29;20266;-64
2023/04/17 00:18:41;;;;;;;28.97;18.27;;;10.60;99.90;;;;;;4975284;28;20751;-64
2023/04/17 00:21:07;;;;;;;27.47;18.37;;;10.60;99.90;;;;;;4976139;28;20173;-64
2023/04/17 00:23:32;;;;;;;30.57;18.90;;;10.60;99.90;;;;;;4959264;28;20186;-64
2023/04/17 00:25:58;;;;;;;25.60;17.23;;;10.60;99.90;;;;;;4956966;29;20214;-64
2023/04/17 00:28:23;;;;;;;27.80;17.97;;;10.70;99.90;;;;;;4971349;28;20184;-64
2023/04/17 00:30:49;;;;;;;30.27;17.63;;;10.70;99.90;;;;;;4975876;28;20592;-64
2023/04/17 00:33:15;;;;;;;24.93;16.73;;;10.70;99.90;;;;;;4966470;28;20205;-64
2023/04/17 00:35:40;;;;;;;31.03;19.13;;;10.60;99.90;;;;;;4973160;28;20193;-64
2023/04/17 00:38:09;;;;;;;26.37;17.73;;;10.60;99.90;;;;;;4976134;28;20589;-64
2023/04/17 00:40:35;;;;;;;32.53;17.47;;;10.60;99.90;;;;;;4975638;28;20178;-64
2023/04/17 00:43:01;;;;;;;27.80;18.67;;;10.60;99.90;;;;;;4975551;28;20189;-64
2023/04/17 00:45:28;;;;;;;33.40;18.47;;;10.60;99.90;;;;;;4975629;28;20683;-64
2023/04/17 00:47:55;;;;;;;29.13;18.40;;;10.60;99.90;;;;;;4960883;28;20186;-64
2023/04/17 00:50:21;;;;;;;29.70;18.40;;;10.60;99.90;;;;;;4956551;29;20566;-64
2023/04/17 00:52:48;;;;;;;30.23;19.03;;;10.60;99.90;;;;;;4969644;28;20181;-64
2023/04/17 00:55:14;;;;;;;30.57;18.63;;;10.70;99.90;;;;;;4975792;28;20251;-64
2023/04/17 00:57:42;;;;;;;32.13;19.00;;;10.70;99.90;;;;;;4963798;28;20516;-64
2023/04/17 01:00:09;;;;;;;27.97;18.57;;;10.70;99.90;;;;;;4969989;28;20587;-64
2023/04/17 01:02:35;;;;;;;32.00;19.30;;;10.70;99.90;;;;;;4965119;28;20189;-64
2023/04/17 01:05:00;;;;;;;31.67;18.60;;;10.70;99.90;;;;;;4956152;29;20657;-64
2023/04/17 01:07:28;;;;;;;26.63;17.90;;;10.70;99.90;;;;;;4964416;28;20184;-65
2023/04/17 01:09:54;;;;;;;33.33;20.37;;;10.70;99.90;;;;;;4975209;28;20176;-64
2023/04/17 01:12:23;;;;;;;31.67;18.37;;;10.70;99.90;;;;;;4968314;28;20589;-64
2023/04/17 01:14:53;;;;;;;26.23;18.50;;;10.60;99.90;;;;;;4956081;29;20261;-64
2023/04/17 01:17:20;;;;;;;32.10;19.17;;;10.60;99.90;;;;;;4961630;28;20198;-64
2023/04/17 01:19:47;;;;;;;28.43;18.47;;;10.60;99.90;;;;;;4975002;28;20256;-65
2023/04/17 01:22:15;;;;;;;29.47;19.10;;;10.60;99.90;;;;;;4970449;28;20174;-64
2023/04/17 01:24:41;;;;;;;32.93;19.83;;;10.60;99.90;;;;;;4956247;29;20289;-64
2023/04/17 01:27:07;;;;;;;27.97;17.57;;;10.60;99.90;;;;;;4956979;28;20304;-65
2023/04/17 01:29:33;;;;;;;28.97;18.80;;;10.60;99.90;;;;;;4955529;29;20659;-65
2023/04/17 01:31:59;;;;;;;33.67;21.13;;;10.50;99.90;;;;;;4967942;28;20686;-64
2023/04/17 01:34:24;;;;;;;33.10;19.57;;;10.60;99.90;;;;;;4972832;28;20237;-64
2023/04/17 01:36:50;;;;;;;30.40;18.93;;;10.60;99.90;;;;;;4955735;29;20194;-64
2023/04/17 01:39:16;;;;;;;28.63;17.73;;;10.50;99.90;;;;;;4955394;28;20263;-65
2023/04/17 01:41:42;;;;;;;28.20;18.90;;;10.50;99.90;;;;;;4974920;28;20174;-64
2023/04/17 01:44:07;;;;;;;32.13;19.37;;;10.50;99.90;;;;;;4975357;28;20180;-64
2023/04/17 01:46:33;;;;;;;31.77;19.13;;;10.50;99.90;;;;;;4957088;28;20230;-64
2023/04/17 01:48:59;;;;;;;32.03;18.80;;;10.50;99.90;;;;;;4955763;29;20174;-64
2023/04/17 01:51:24;;;;;;;27.37;20.07;;;10.50;99.90;;;;;;4970842;28;20269;-65
2023/04/17 01:53:50;;;;;;;32.47;20.87;;;10.50;99.90;;;;;;4974512;28;20299;-65
2023/04/17 01:56:16;;;;;;;30.77;19.73;;;10.50;99.90;;;;;;4960262;28;20300;-65
2023/04/17 01:58:42;;;;;;;32.80;20.63;;;10.50;99.90;;;;;;4955214;28;20174;-65
2023/04/17 02:01:08;;;;;;;30.93;18.80;;;10.50;99.90;;;;;;4955100;28;20185;-65
2023/04/17 02:03:33;;;;;;;28.53;20.03;;;10.40;99.90;;;;;;4955365;29;20181;-65
2023/04/17 02:05:59;;;;;;;26.37;18.07;;;10.40;99.90;;;;;;4965642;28;20280;-65
2023/04/17 02:08:25;;;;;;;35.90;21.13;;;10.40;99.90;;;;;;4974391;28;20169;-65
2023/04/17 02:10:51;;;;;;;21.73;18.27;;;10.40;99.90;;;;;;4965069;28;20190;-64
2023/04/17 02:13:17;;;;;;;34.93;21.03;;;10.40;99.90;;;;;;4955024;29;20229;-65
2023/04/17 02:15:42;;;;;;;33.30;20.60;;;10.40;99.90;;;;;;4955904;28;20244;-64
2023/04/17 02:18:08;;;;;;;32.80;20.40;;;10.30;99.90;;;;;;4955016;28;20262;-65
2023/04/17 02:20:36;;;;;;;31.83;18.90;;;10.40;99.90;;;;;;4962124;28;20192;-64
2023/04/17 02:23:03;;;;;;;29.60;19.37;;;10.30;99.90;;;;;;4974283;28;20597;-64
2023/04/17 02:25:29;;;;;;;31.87;20.70;;;10.30;99.90;;;;;;4973514;28;20217;-64
2023/04/17 02:27:55;;;;;;;30.77;19.57;;;10.30;99.90;;;;;;4973357;28;20183;-64
2023/04/17 02:30:25;;;;;;;28.47;20.13;;;10.30;99.90;;;;;;4968995;28;20181;-64
2023/04/17 02:32:51;;;;;;;29.73;18.83;;;10.30;99.90;;;;;;4957858;28;20236;-65
2023/04/17 02:35:21;;;;;;;30.17;20.33;;;10.30;99.90;;;;;;4973832;28;20574;-64
2023/04/17 02:37:47;;;;;;;31.43;20.43;;;10.30;99.90;;;;;;4970625;28;20280;-64
2023/04/17 02:40:14;;;;;;;27.37;20.33;;;10.30;99.90;;;;;;4954276;29;20261;-65
2023/04/17 02:42:40;;;;;;;37.87;20.80;;;10.20;99.90;;;;;;4954965;28;20549;-64
2023/04/17 02:45:06;;;;;;;27.80;20.27;;;10.20;99.90;;;;;;4973748;28;20178;-65
2023/04/17 02:47:31;;;;;;;34.87;20.33;;;10.20;99.90;;;;;;4973661;28;20193;-65
2023/04/17 02:49:59;;;;;;;28.73;20.60;;;10.20;99.90;;;;;;4954892;28;20190;-64
2023/04/17 02:52:28;;;;;;;30.90;21.87;;;10.20;99.90;;;;;;4954417;29;20685;-65
2023/04/17 02:54:55;;;;;;;30.00;19.57;;;10.20;99.90;;;;;;4971421;28;20209;-65
2023/04/17 02:57:21;;;;;;;41.63;19.90;;;10.20;99.90;;;;;;4973792;28;20193;-65
2023/04/17 02:59:47;;;;;;;31.10;20.10;;;10.20;99.90;;;;;;4956923;28;20178;-65
2023/04/17 03:02:13;;;;;;;31.07;21.87;;;10.20;99.90;;;;;;4954296;29;20185;-65
2023/04/17 03:04:39;;;;;;;43.10;23.63;;;10.20;99.90;;;;;;4954412;28;20178;-65
2023/04/17 03:07:05;;;;;;;33.73;22.03;;;10.20;99.90;;;;;;4954108;29;20706;-65
2023/04/17 03:09:32;;;;;;;38.27;20.57;;;10.10;99.90;;;;;;4966181;28;20185;-65
2023/04/17 03:11:58;;;;;;;36.13;21.70;;;10.10;99.90;;;;;;4973213;28;20189;-65
2023/04/17 03:14:25;;;;;;;35.13;20.27;;;10.10;99.90;;;;;;4944505;29;20649;-65
2023/04/17 03:16:50;;;;;;;41.97;22.20;;;10.10;99.90;;;;;;4953852;28;20206;-65
2023/04/17 03:19:16;;;;;;;29.63;20.40;;;10.10;99.90;;;;;;4953165;28;20656;-65
2023/04/17 03:21:42;;;;;;;33.70;20.43;;;10.00;99.90;;;;;;4953636;29;20205;-65
2023/04/17 03:24:10;;;;;;;31.40;21.43;;;10.00;99.90;;;;;;4954951;28;20194;-64
2023/04/17 03:26:35;;;;;;;34.90;22.53;;;10.00;99.90;;;;;;4954061;28;20603;-66
2023/04/17 03:29:01;;;;;;;34.77;22.40;;;10.00;99.90;;;;;;4960059;28;20193;-66
2023/04/17 03:31:26;;;;;;;37.07;21.40;;;10.00;99.90;;;;;;4972537;28;20197;-67
2023/04/17 03:33:52;;;;;;;37.23;21.13;;;10.00;99.90;;;;;;4967802;28;20217;-66
2023/04/17 03:36:17;;;;;;;39.93;23.97;;;10.00;99.90;;;;;;4952936;28;20728;-66
2023/04/17 03:38:43;;;;;;;37.83;22.17;;;9.90;99.90;;;;;;4956316;28;20237;-66
2023/04/17 03:41:10;;;;;;;35.03;23.73;;;9.90;99.90;;;;;;4972605;28;20180;-67
2023/04/17 03:43:35;;;;;;;33.93;21.23;;;9.90;99.90;;;;;;4971008;28;20255;-64
2023/04/17 03:46:01;;;;;;;36.37;22.27;;;9.90;99.90;;;;;;4953417;29;20304;-66
2023/04/17 03:48:26;;;;;;;36.80;22.07;;;9.90;99.90;;;;;;4953835;28;20174;-66
2023/04/17 03:50:52;;;;;;;41.40;23.53;;;9.90;99.90;;;;;;4954241;28;20189;-66
2023/04/17 03:53:18;;;;;;;30.77;21.57;;;9.90;99.90;;;;;;4953385;29;20182;-66
2023/04/17 03:55:43;;;;;;;39.17;24.23;;;9.90;99.90;;;;;;4970332;28;20221;-66
2023/04/17 03:58:09;;;;;;;45.33;26.63;;;9.90;99.90;;;;;;4972682;28;20182;-66
2023/04/17 04:00:36;;;;;;;45.10;24.40;;;9.90;99.90;;;;;;4956296;28;20317;-65
2023/04/17 04:03:02;;;;;;;35.40;24.13;;;9.90;99.90;;;;;;4953457;28;20178;-67
2023/04/17 04:05:28;;;;;;;35.27;23.73;;;9.90;99.90;;;;;;4967187;28;20228;-66
2023/04/17 04:07:54;;;;;;;37.00;22.97;;;9.90;99.90;;;;;;4972408;28;20279;-66
2023/04/17 04:10:20;;;;;;;41.00;24.40;;;9.90;99.90;;;;;;4959303;28;20190;-65
2023/04/17 04:12:45;;;;;;;37.83;27.40;;;10.00;99.90;;;;;;4953211;29;20221;-67
2023/04/17 04:15:11;;;;;;;50.63;31.43;;;10.00;99.90;;;;;;4969865;28;20240;-66
2023/04/17 04:17:37;;;;;;;43.33;27.13;;;10.00;99.90;;;;;;4964034;28;20245;-67
2023/04/17 04:20:03;;;;;;;37.67;23.67;;;10.00;99.90;;;;;;4952862;29;20177;-67
2023/04/17 04:22:29;;;;;;;37.80;23.23;;;10.00;99.90;;;;;;4959460;28;20178;-67
2023/04/17 04:24:55;;;;;;;42.03;29.63;;;10.00;99.90;;;;;;4972300;28;20532;-66
2023/04/17 04:27:21;;;;;;;47.27;28.50;;;10.00;99.90;;;;;;4967220;28;20214;-66
2023/04/17 04:29:48;;;;;;;41.57;26.77;;;10.00;99.90;;;;;;4952524;29;20269;-66
2023/04/17 04:32:15;;;;;;;33.80;23.67;;;10.00;99.90;;;;;;4954175;28;20707;-65
2023/04/17 04:34:43;;;;;;;43.43;26.97;;;10.00;99.90;;;;;;4963491;28;20711;-63
2023/04/17 04:37:12;;;;;;;50.20;27.90;;;10.00;99.90;;;;;;4952913;29;20566;-64
2023/04/17 04:39:38;;;;;;;42.53;23.53;;;10.00;99.90;;;;;;4952469;29;20205;-65
2023/04/17 04:42:04;;;;;;;35.80;25.30;;;10.00;99.90;;;;;;4953218;28;20209;-65
2023/04/17 04:44:30;;;;;;;38.13;23.70;;;9.90;99.90;;;;;;4972118;28;20237;-65
2023/04/17 04:46:56;;;;;;;32.77;22.80;;;9.90;99.90;;;;;;4972243;28;20197;-64
2023/04/17 04:49:22;;;;;;;37.33;23.57;;;10.00;99.90;;;;;;4953353;28;20186;-64
2023/04/17 04:51:48;;;;;;;37.97;25.23;;;10.00;99.90;;;;;;4955341;28;20653;-65
2023/04/17 04:54:13;;;;;;;35.23;22.63;;;10.00;99.90;;;;;;4972913;28;20216;-65
2023/04/17 04:56:39;;;;;;;37.03;24.93;;;10.00;99.90;;;;;;4975627;28;20201;-65
2023/04/17 04:59:04;;;;;;;39.90;25.10;;;10.00;99.90;;;;;;4960689;28;20345;-66
2023/04/17 05:01:30;;;;;;;40.53;23.00;;;10.00;99.90;;;;;;4956087;28;20170;-64
2023/04/17 05:03:56;;;;;;;38.27;24.43;;;10.00;99.90;;;;;;4969404;28;20195;-65
2023/04/17 05:06:21;;;;;;;39.53;24.67;;;10.00;99.90;;;;;;4975510;28;20208;-66
2023/04/17 05:08:47;;;;;;;37.07;22.83;;;10.00;99.90;;;;;;4963994;28;20667;-65
2023/04/17 05:11:14;;;;;;;37.77;23.00;;;10.00;99.90;;;;;;4955938;29;20186;-65
2023/04/17 05:13:39;;;;;;;40.00;21.80;;;9.90;99.90;;;;;;4965937;28;20296;-66
2023/04/17 05:16:05;;;;;;;37.77;23.60;;;9.90;99.90;;;;;;4975357;28;20268;-66
2023/04/17 05:18:31;;;;;;;33.83;23.03;;;9.90;99.90;;;;;;4973647;28;20188;-65
2023/04/17 05:20:56;;;;;;;38.83;23.10;;;10.00;99.90;;;;;;4975086;28;20174;-66
2023/04/17 05:23:22;;;;;;;30.80;20.47;;;9.90;99.90;;;;;;4968445;28;20174;-66
2023/04/17 05:25:48;;;;;;;38.93;22.30;;;9.90;99.90;;;;;;4955742;28;20268;-65
2023/04/17 05:28:14;;;;;;;31.50;21.93;;;9.90;99.90;;;;;;4960671;28;20256;-65
2023/04/17 05:30:39;;;;;;;33.63;21.07;;;9.90;99.90;;;;;;4974734;28;20173;-66
2023/04/17 05:33:05;;;;;;;33.60;21.93;;;9.90;99.90;;;;;;4971704;28;20531;-65
2023/04/17 05:35:31;;;;;;;36.17;20.50;;;9.90;99.90;;;;;;4955643;29;20210;-66
2023/04/17 05:37:56;;;;;;;36.63;20.37;;;10.00;99.90;;;;;;4956652;28;20206;-65
2023/04/17 05:40:22;;;;;;;29.57;20.13;;;9.90;99.90;;;;;;4974340;28;20244;-65
2023/04/17 05:42:47;;;;;;;30.13;19.80;;;9.90;99.90;;;;;;4975308;28;20228;-65
2023/04/17 05:45:14;;;;;;;25.30;18.80;;;10.00;99.90;;;;;;4955753;28;20209;-64
2023/04/17 05:47:40;;;;;;;33.30;19.70;;;10.00;99.90;;;;;;4972757;28;20185;-65
2023/04/17 05:50:07;;;;;;;38.83;19.53;;;10.00;99.90;;;;;;4974386;28;20646;-64
2023/04/17 05:52:33;;;;;;;42.43;20.53;;;10.00;99.90;;;;;;4958750;28;20186;-66
2023/04/17 05:54:59;;;;;;;39.97;22.17;;;10.00;99.90;;;;;;4955452;29;20202;-65
2023/04/17 05:57:24;;;;;;;37.00;21.63;;;10.10;99.90;;;;;;4969652;28;20174;-65
2023/04/17 05:59:50;;;;;;;31.83;19.87;;;10.10;99.90;;;;;;4974275;28;20623;-65
2023/04/17 06:02:16;;;;;;;35.33;19.80;;;10.10;99.90;;;;;;4960688;28;20178;-66
2023/04/17 06:04:42;;;;;;;31.40;20.47;;;10.10;99.90;;;;;;4955264;29;20198;-65
2023/04/17 06:07:09;;;;;;;39.80;21.97;;;10.10;99.90;;;;;;4956538;28;20225;-66
2023/04/17 06:09:35;;;;;;;31.07;21.20;;;10.20;99.90;;;;;;4954972;28;20655;-64
2023/04/17 06:12:02;;;;;;;31.73;20.80;;;10.20;99.90;;;;;;4956339;28;20241;-64
2023/04/17 06:14:27;;;;;;;31.70;20.50;;;10.30;99.90;;;;;;4955133;28;20202;-66
2023/04/17 06:16:53;;;;;;;33.77;20.67;;;10.30;99.90;;;;;;4962908;28;20208;-66
2023/04/17 06:19:19;;;;;;;32.37;20.63;;;10.40;99.90;;;;;;4973804;28;20262;-65
2023/04/17 06:21:44;;;;;;;29.07;19.83;;;10.50;99.90;;;;;;4968697;28;20233;-65
2023/04/17 06:24:10;;;;;;;37.17;19.30;;;10.50;99.90;;;;;;4974266;28;20186;-66
2023/04/17 06:26:36;;;;;;;26.23;19.63;;;10.50;99.90;;;;;;4956479;28;20711;-65
2023/04/17 06:29:01;;;;;;;32.43;22.43;;;10.60;99.90;;;;;;4966586;28;20189;-66
2023/04/17 06:31:27;;;;;;;28.47;20.07;;;10.60;99.90;;;;;;4971335;28;20261;-64
2023/04/17 06:33:52;;;;;;;31.30;19.33;;;10.60;99.90;;;;;;4973255;28;20291;-67
2023/04/17 06:36:18;;;;;;;33.87;20.33;;;10.50;99.90;;;;;;4973766;28;20652;-66
2023/04/17 06:38:43;;;;;;;32.03;20.23;;;10.50;99.90;;;;;;4964618;28;20246;-66
2023/04/17 06:41:09;;;;;;;24.97;19.30;;;10.50;99.90;;;;;;4954211;29;20166;-65
2023/04/17 06:43:35;;;;;;;26.37;19.17;;;10.50;99.90;;;;;;4961310;28;20682;-65
2023/04/17 06:46:00;;;;;;;28.87;18.60;;;10.50;99.90;;;;;;4973547;28;20279;-66
2023/04/17 06:48:26;;;;;;;28.43;20.00;;;10.50;99.90;;;;;;4972034;28;20177;-65
2023/04/17 06:50:51;;;;;;;37.27;20.63;;;10.60;99.90;;;;;;4973488;28;20174;-65
2023/04/17 06:53:17;;;;;;;25.97;17.97;;;10.70;99.90;;;;;;4969469;28;20178;-66
2023/04/17 06:55:42;;;;;;;29.43;17.93;;;10.70;99.90;;;;;;4953985;28;20268;-66
2023/04/17 06:58:08;;;;;;;28.90;18.57;;;10.80;99.90;;;;;;4955072;28;20281;-66
2023/04/17 07:00:34;;;;;;;27.17;17.70;;;10.80;99.90;;;;;;4953559;29;20174;-65
2023/04/17 07:03:00;;;;;;;27.73;19.47;;;10.80;99.90;;;;;;4954373;28;20201;-66
2023/04/17 07:05:26;;;;;;;26.57;18.07;;;10.80;99.90;;;;;;4954670;28;20257;-65
2023/04/17 07:07:51;;;;;;;23.63;18.20;;;10.80;99.90;;;;;;4954929;28;20209;-66
2023/04/17 07:10:18;;;;;;;26.07;19.40;;;10.90;99.90;;;;;;4953640;29;20185;-66
2023/04/17 07:12:44;;;;;;;21.17;15.90;;;11.00;99.90;;;;;;4966956;28;20590;-66
2023/04/17 07:15:10;;;;;;;29.93;18.63;;;11.10;99.90;;;;;;4972779;28;20618;-66
2023/04/17 07:17:35;;;;;;;19.17;16.53;;;11.10;99.90;;;;;;4961005;28;20274;-64
2023/04/17 07:20:01;;;;;;;24.20;16.77;;;11.20;99.90;;;;;;4953355;29;20181;-65
2023/04/17 07:22:27;;;;;;;23.27;16.40;;;11.20;99.90;;;;;;4963281;28;20640;-65
2023/04/17 07:24:53;;;;;;;23.20;16.83;;;11.30;99.90;;;;;;4973035;28;20548;-65
2023/04/17 07:27:19;;;;;;;23.13;15.80;;;11.40;99.90;;;;;;4964429;28;20206;-65
2023/04/17 07:29:46;;;;;;;22.90;15.03;;;11.40;99.90;;;;;;4953404;28;20603;-65
2023/04/17 07:32:12;;;;;;;23.37;16.33;;;11.40;99.90;;;;;;4962919;28;20182;-65
2023/04/17 07:34:40;;;;;;;25.73;17.30;;;11.50;99.90;;;;;;4972582;28;20212;-65
2023/04/17 07:37:05;;;;;;;20.03;15.87;;;11.60;99.90;;;;;;4963320;28;20568;-65
2023/04/17 07:39:31;;;;;;;28.00;16.27;;;11.70;99.90;;;;;;4953329;28;20189;-65
2023/04/17 07:41:57;;;;;;;22.30;15.47;;;11.80;99.90;;;;;;4953522;29;20170;-65
2023/04/17 07:44:22;;;;;;;25.50;15.47;;;11.80;99.90;;;;;;4956093;28;20598;-65
2023/04/17 07:46:48;;;;;;;21.13;15.27;;;11.80;99.90;;;;;;4972876;28;20220;-66
2023/04/17 07:49:13;;;;;;;23.37;14.67;;;11.80;99.90;;;;;;4970876;28;20181;-65
2023/04/17 07:51:39;;;;;;;17.37;13.93;;;12.00;99.90;;;;;;4953144;28;20188;-65
2023/04/17 07:54:06;;;;;;;18.77;16.00;;;12.10;99.90;;;;;;4963244;28;20634;-66
2023/04/17 07:56:33;;;;;;;17.67;14.40;;;12.20;99.90;;;;;;4971897;28;20205;-66
2023/04/17 07:58:59;;;;;;;16.40;14.40;;;12.40;99.90;;;;;;4970063;28;20292;-66
2023/04/17 08:01:25;;;;;;;20.23;13.90;;;12.60;99.90;;;;;;4935562;29;20261;-65
2023/04/17 08:03:52;;;;;;;18.20;13.63;;;12.50;99.90;;;;;;4953677;28;20189;-65
2023/04/17 08:06:18;;;;;;;17.70;13.93;;;12.50;99.90;;;;;;4972354;28;20216;-64
2023/04/17 08:08:46;;;;;;;18.20;14.93;;;12.40;99.90;;;;;;4972102;28;20553;-66
2023/04/17 08:11:13;;;;;;;18.03;14.40;;;12.20;99.90;;;;;;4952885;29;20174;-66
2023/04/17 08:13:39;;;;;;;18.43;14.27;;;12.10;99.90;;;;;;4953015;29;20197;-65
2023/04/17 08:16:05;;;;;;;17.17;12.63;;;12.10;99.90;;;;;;4970879;28;20674;-66
2023/04/17 08:18:31;;;;;;;19.07;13.83;;;12.20;99.90;;;;;;4972180;28;20699;-65
2023/04/17 08:20:56;;;;;;;18.30;13.37;;;12.20;99.90;;;;;;4970574;28;20184;-65
2023/04/17 08:23:22;;;;;;;16.40;13.43;;;12.20;99.90;;;;;;4972280;28;20538;-65
2023/04/17 08:25:47;;;;;;;17.37;13.10;;;12.20;99.90;;;;;;4955665;28;20214;-65
2023/04/17 08:28:13;;;;;;;17.23;14.70;;;12.20;99.90;;;;;;4970250;28;20194;-65
2023/04/17 08:30:39;;;;;;;19.23;15.03;;;12.20;99.90;;;;;;4975741;28;20185;-66
2023/04/17 08:33:04;;;;;;;15.33;13.67;;;12.10;99.90;;;;;;4967443;28;20186;-63
2023/04/17 08:35:30;;;;;;;18.00;14.50;;;12.10;99.90;;;;;;4971302;28;20205;-65
2023/04/17 08:37:57;;;;;;;18.40;14.83;;;12.10;99.90;;;;;;4970012;28;20188;-66
2023/04/17 08:40:25;;;;;;;17.17;14.63;;;12.20;99.90;;;;;;4956299;29;20542;-66
2023/04/17 08:42:52;;;;;;;22.50;14.10;;;12.20;99.90;;;;;;4964791;28;20205;-65
2023/04/17 08:45:19;;;;;;;18.77;14.50;;;12.30;99.90;;;;;;4975828;28;20177;-65
2023/04/17 08:47:45;;;;;;;21.83;14.40;;;12.40;99.90;;;;;;4974097;28;20269;-66
2023/04/17 08:50:12;;;;;;;24.70;15.47;;;12.50;99.90;;;;;;4975538;28;20261;-66
2023/04/17 08:52:42;;;;;;;19.13;13.83;;;12.60;99.90;;;;;;4974073;28;20193;-66
2023/04/17 08:55:13;;;;;;;18.57;13.57;;;12.60;99.90;;;;;;4975592;28;20201;-67
2023/04/17 08:57:54;;;;;;;18.77;13.90;;;12.70;99.90;;;;;;4973952;28;20181;-66
2023/04/17 09:00:24;;;;;;;17.40;14.57;;;12.90;99.90;;;;;;4975250;28;20522;-66
2023/04/17 09:02:53;;;;;;;20.07;15.00;;;13.00;99.90;;;;;;4972984;28;20704;-67
2023/04/17 09:05:20;;;;;;;17.20;14.17;;;13.00;99.90;;;;;;4964437;28;20177;-66
2023/04/17 09:07:46;;;;;;;19.83;13.93;;;12.80;99.90;;;;;;4975578;28;20173;-66
2023/04/17 09:10:12;;;;;;;20.70;15.43;;;12.70;99.90;;;;;;4974164;28;20614;-66
2023/04/17 09:12:40;;;;;;;17.80;14.33;;;12.60;99.90;;;;;;4975297;28;20178;-65
2023/04/17 09:15:24;;;;;;;23.43;15.17;;;12.70;99.90;;;;;;4972314;28;20209;-66
2023/04/17 09:17:50;;;;;;;15.43;13.73;;;12.70;99.90;;;;;;4956433;29;20590;-67
2023/04/17 09:20:16;;;;;;;18.00;14.73;;;12.80;99.90;;;;;;4956071;28;20189;-65
2023/04/17 09:22:42;;;;;;;21.20;14.37;;;12.90;99.90;;;;;;4955846;29;20660;-66
2023/04/17 09:25:21;;;;;;;17.80;13.97;;;12.90;99.90;;;;;;4957430;28;20671;-66
2023/04/17 09:27:47;;;;;;;22.73;15.37;;;13.00;99.90;;;;;;4975798;28;20181;-67
2023/04/17 09:30:13;;;;;;;21.33;15.63;;;13.10;99.90;;;;;;4956691;28;20352;-66
2023/04/17 09:32:42;;;;;;;19.37;14.00;;;13.20;99.90;;;;;;4955562;29;20680;-66
2023/04/17 09:35:07;;;;;;;19.87;14.03;;;13.40;99.90;;;;;;4956144;28;20234;-67
2023/04/17 09:37:53;;;;;;;19.60;13.70;;;14.00;99.90;;;;;;4958256;28;20247;-66
2023/04/17 09:40:21;;;;;;;18.83;14.60;;;14.60;99.90;;;;;;4973589;28;20183;-66
2023/04/17 09:43:03;;;;;;;17.07;12.57;;;14.90;99.90;;;;;;4974753;28;20169;-66
2023/04/17 09:45:40;;;;;;;18.30;12.83;;;15.00;99.90;;;;;;4973564;28;20224;-65
2023/04/17 09:48:11;;;;;;;14.83;12.00;;;15.10;99.90;;;;;;4970220;28;20233;-65
2023/04/17 09:50:38;;;;;;;19.00;12.53;;;15.50;99.90;;;;;;4954987;29;20182;-66
2023/04/17 09:53:04;;;;;;;17.53;11.63;;;16.00;99.90;;;;;;4958482;28;20174;-66
2023/04/17 09:55:32;;;;;;;16.23;12.07;;;16.00;99.90;;;;;;4957095;28;20593;-65
2023/04/17 09:58:00;;;;;;;15.83;11.40;;;16.00;99.90;;;;;;4972478;28;20166;-66
2023/04/17 10:00:26;;;;;;;16.47;13.03;;;15.80;99.90;;;;;;4954718;28;20695;-67
2023/04/17 10:02:53;;;;;;;11.83;10.20;;;15.60;99.90;;;;;;4955798;28;20545;-66
2023/04/17 10:05:20;;;;;;;18.17;11.83;;;15.80;99.90;;;;;;4973689;28;20190;-67
2023/04/17 10:07:46;;;;;;;15.13;12.30;;;15.80;99.90;;;;;;4972808;28;20196;-66
2023/04/17 10:10:25;;;;;;;13.33;10.67;;;15.90;99.90;;;;;;4974177;28;20260;-67
2023/04/17 10:12:54;;;;;;;16.40;10.37;;;16.30;99.90;;;;;;4971906;28;20289;-66
2023/04/17 10:15:22;;;;;;;10.00;8.93;;;16.70;99.90;;;;;;4954758;29;20213;-66
2023/04/17 10:17:48;;;;;;;10.77;9.23;;;17.30;99.90;;;;;;4973766;28;20523;-66
2023/04/17 10:20:14;;;;;;;10.17;9.00;;;17.50;99.90;;;;;;4973798;28;20176;-67
2023/04/17 10:22:41;;;;;;;8.63;7.83;;;17.50;99.90;;;;;;4956179;28;20178;-67
2023/04/17 10:25:12;;;;;;;10.67;8.63;;;17.60;99.90;;;;;;4954823;29;20182;-66
2023/04/17 10:27:39;;;;;;;9.53;8.40;;;17.80;99.90;;;;;;4971318;28;20363;-66
2023/04/17 10:30:06;;;;;;;9.87;8.20;;;17.80;99.90;;;;;;4973670;28;20173;-67
2023/04/17 10:32:33;;;;;;;8.98;8.02;;;18.00;99.90;;;;;;4958006;28;20186;-67
2023/04/17 10:35:03;;;;;;;9.83;8.60;;;18.20;99.90;;;;;;4954500;29;20201;-67
2023/04/17 10:37:47;;;;;;;10.27;9.27;;;18.10;99.90;;;;;;4967824;28;20174;-67
2023/04/17 10:40:21;;;;;;;11.57;9.70;;;18.00;99.90;;;;;;4973379;28;20173;-66
2023/04/17 10:43:12;;;;;;;10.67;9.27;;;17.90;99.90;;;;;;4972065;28;20178;-67
2023/04/17 10:46:04;;;;;;;11.33;8.27;;;18.00;99.90;;;;;;4973642;28;20205;-67
2023/04/17 10:48:31;;;;;;;9.53;7.43;;;18.20;99.90;;;;;;4962235;28;20285;-65
2023/04/17 10:50:58;;;;;;;8.97;7.50;;;18.30;99.90;;;;;;4972578;28;20181;-67
2023/04/17 10:53:36;;;;;;;9.73;8.07;;;18.40;99.90;;;;;;4973460;28;20178;-66
2023/04/17 10:56:02;;;;;;;12.43;7.57;;;18.30;99.90;;;;;;4972389;28;20248;-67
2023/04/17 10:58:28;;;;;;;7.90;6.93;;;18.50;99.90;;;;;;4954138;29;20170;-66
2023/04/17 11:00:54;;;;;;;9.55;7.95;;;18.60;99.90;;;;;;4954339;28;20594;-66
2023/04/17 11:03:21;;;;;;;8.60;7.73;;;18.70;99.90;;;;;;4953989;28;20256;-65
2023/04/17 11:05:48;;;;;;;7.37;6.77;;;18.70;99.90;;;;;;4954044;28;20205;-65
2023/04/17 11:08:14;;;;;;;8.50;7.60;;;18.70;99.90;;;;;;4953932;29;20182;-66
2023/04/17 11:10:40;;;;;;;8.40;7.60;;;18.70;99.90;;;;;;4953393;29;20206;-66
2023/04/17 11:13:06;;;;;;;7.63;6.63;;;18.70;99.90;;;;;;4954984;28;20210;-67
2023/04/17 11:15:34;;;;;;;9.27;7.30;;;18.80;99.90;;;;;;4953418;28;20206;-66
2023/04/17 11:18:00;;;;;;;7.63;6.93;;;18.90;99.90;;;;;;4969583;28;20274;-67
2023/04/17 11:20:29;;;;;;;7.53;6.80;;;18.90;99.90;;;;;;4972552;28;20224;-66
2023/04/17 11:22:59;;;;;;;10.57;8.00;;;18.90;99.90;;;;;;4971424;28;20181;-66
2023/04/17 11:25:26;;;;;;;7.97;7.17;;;18.90;99.90;;;;;;4972778;28;20201;-66
2023/04/17 11:28:00;;;;;;;9.52;6.88;;;19.10;99.90;;;;;;4958656;28;20182;-65
2023/04/17 11:30:34;;;;;;;8.60;7.10;;;19.20;99.90;;;;;;4952927;28;20178;-67
2023/04/17 11:33:04;;;;;;;11.50;6.93;;;19.20;99.90;;;;;;4954704;28;20265;-66
2023/04/17 11:35:40;;;;;;;7.53;6.17;;;19.20;99.90;;;;;;4953202;28;20210;-66
2023/04/17 11:38:12;;;;;;;7.33;6.60;;;19.00;99.90;;;;;;4967609;28;20662;-66
2023/04/17 11:40:44;;;;;;;8.63;7.13;;;18.50;99.90;;;;;;4972263;28;20197;-66
2023/04/17 11:43:11;;;;;;;7.50;6.73;;;18.40;99.90;;;;;;4958070;28;20623;-66
2023/04/17 11:45:40;;;;;;;7.37;6.67;;;18.70;99.90;;;;;;4955586;28;20202;-68
2023/04/17 11:48:08;;;;;;;6.90;6.30;;;19.20;99.90;;;;;;4962141;28;20261;-66
2023/04/17 11:50:34;;;;;;;10.02;6.32;;;19.60;99.90;;;;;;4964159;28;20615;-65
2023/04/17 11:53:01;;;;;;;6.25;5.72;;;19.30;99.90;;;;;;4972709;28;20646;-66
2023/04/17 11:55:30;;;;;;;7.47;6.38;;;18.90;99.90;;;;;;4970708;28;20212;-66
2023/04/17 11:58:05;;;;;;;7.17;6.43;;;19.00;99.90;;;;;;4973132;28;20166;-66
2023/04/17 12:00:31;;;;;;;6.95;6.18;;;19.40;99.90;;;;;;4967632;28;20268;-66
2023/04/17 12:02:58;;;;;;;7.45;6.57;;;19.30;99.90;;;;;;4953479;28;20250;-66
2023/04/17 12:05:25;;;;;;;6.93;6.20;;;19.30;99.90;;;;;;4955048;28;20200;-67
2023/04/17 12:08:11;;;;;;;7.60;6.83;;;19.00;99.90;;;;;;4972660;28;20574;-66
2023/04/17 12:10:37;;;;;;;10.30;7.73;;;18.70;99.90;;;;;;4967600;28;20240;-67
2023/04/17 12:13:03;;;;;;;10.00;6.67;;;18.80;99.90;;;;;;4953361;29;20206;-66
2023/04/17 12:15:28;;;;;;;7.63;6.13;;;19.00;99.90;;;;;;4958490;28;20235;-66
2023/04/17 12:17:54;;;;;;;8.32;5.65;;;19.00;99.90;;;;;;4972529;28;20257;-66
2023/04/17 12:20:20;;;;;;;6.37;5.87;;;19.30;99.90;;;;;;4967215;28;20245;-67
2023/04/17 12:22:45;;;;;;;7.73;6.93;;;19.70;99.90;;;;;;4953306;29;20177;-65
2023/04/17 12:25:11;;;;;;;6.95;6.18;;;20.10;99.90;;;;;;4955950;28;20229;-67
2023/04/17 12:27:37;;;;;;;6.55;5.93;;;19.80;99.90;;;;;;4972393;28;20220;-65
2023/04/17 12:30:03;;;;;;;7.40;6.63;;;19.60;99.90;;;;;;4971028;28;20193;-67